Time;durP1;ratioP1;P1;durP2;ratioP2;P2;SDS_P1;SDS_P2;PMS_P1;PMS_P2;Temp;Humidity;BMP_temperature;BMP_pressure;BME280_temperature;BME280_humidity;BME280_pressure;Samples;Min_cycle;Max_cycle;Signal;HPM_P1;HPM_P2
2023/05/29 00:00:21;;;;;;;7.47;5.20;;;15.60;95.20;;;;;;5018486;28;20214;-68
2023/05/29 00:02:49;;;;;;;9.30;5.93;;;15.50;95.20;;;;;;5011036;28;20182;-67
2023/05/29 00:05:15;;;;;;;6.15;5.25;;;15.60;95.30;;;;;;5004720;28;20818;-66
2023/05/29 00:07:41;;;;;;;9.90;5.85;;;15.30;95.30;;;;;;5007372;28;20191;-67
2023/05/29 00:10:08;;;;;;;5.85;5.07;;;15.50;95.60;;;;;;5009291;28;20574;-66
2023/05/29 00:12:35;;;;;;;7.70;5.40;;;15.30;95.50;;;;;;5007643;28;20218;-69
2023/05/29 00:15:01;;;;;;;7.30;5.45;;;15.30;95.60;;;;;;5005280;28;20793;-69
2023/05/29 00:17:27;;;;;;;5.70;5.10;;;15.20;95.80;;;;;;5005633;28;20191;-67
2023/05/29 00:19:53;;;;;;;8.65;5.35;;;15.10;95.80;;;;;;5008401;28;20287;-67
2023/05/29 00:22:19;;;;;;;5.00;4.50;;;15.50;96.10;;;;;;5006737;28;20280;-68
2023/05/29 00:24:44;;;;;;;5.90;5.27;;;15.30;95.90;;;;;;5005710;28;20183;-69
2023/05/29 00:27:10;;;;;;;6.40;5.00;;;15.20;96.00;;;;;;5015637;28;20444;-67
2023/05/29 00:29:38;;;;;;;8.37;5.40;;;15.40;96.20;;;;;;5004807;28;20301;-68
2023/05/29 00:32:05;;;;;;;5.45;4.95;;;15.40;96.40;;;;;;5002677;28;20187;-67
2023/05/29 00:34:31;;;;;;;6.07;5.15;;;15.10;96.50;;;;;;5002537;28;20601;-67
2023/05/29 00:36:57;;;;;;;6.03;5.43;;;15.30;96.60;;;;;;5009953;28;21042;-67
2023/05/29 00:39:22;;;;;;;7.27;4.73;;;15.10;96.50;;;;;;5000833;28;20476;-68
2023/05/29 00:41:50;;;;;;;5.13;4.63;;;15.30;96.70;;;;;;5004621;28;20234;-69
2023/05/29 00:44:19;;;;;;;5.38;4.88;;;15.30;97.00;;;;;;5008998;28;20222;-68
2023/05/29 00:46:49;;;;;;;5.07;4.57;;;15.00;96.90;;;;;;5007730;28;20198;-67
2023/05/29 00:49:16;;;;;;;6.43;4.68;;;15.00;97.10;;;;;;5008129;28;20195;-67
2023/05/29 00:51:43;;;;;;;6.45;5.60;;;15.00;97.10;;;;;;5007315;28;20253;-67
2023/05/29 00:54:12;;;;;;;6.15;5.10;;;14.80;97.20;;;;;;5005539;28;20198;-69
2023/05/29 00:56:44;;;;;;;6.35;4.90;;;15.10;97.50;;;;;;5009402;28;20211;-67
2023/05/29 00:59:11;;;;;;;6.32;5.70;;;14.70;97.60;;;;;;5000615;28;20241;-68
2023/05/29 01:01:37;;;;;;;5.80;4.78;;;14.80;97.70;;;;;;5000175;28;20222;-67
2023/05/29 01:04:06;;;;;;;4.63;4.10;;;14.70;97.80;;;;;;5012791;28;20185;-69
2023/05/29 01:06:35;;;;;;;7.05;5.97;;;14.70;97.80;;;;;;5009908;28;20654;-69
2023/05/29 01:09:01;;;;;;;5.78;4.80;;;14.60;98.30;;;;;;5013606;28;20191;-68
2023/05/29 01:11:47;;;;;;;7.80;5.07;;;14.40;98.60;;;;;;5014007;28;20237;-67
2023/05/29 01:14:25;;;;;;;5.78;5.10;;;14.50;98.40;;;;;;5005582;28;20207;-66
2023/05/29 01:17:21;;;;;;;8.50;5.82;;;14.80;98.70;;;;;;5004088;28;20606;-68
2023/05/29 01:20:05;;;;;;;7.07;4.75;;;14.40;98.60;;;;;;5001382;28;20216;-67
2023/05/29 01:23:04;;;;;;;8.20;5.13;;;14.30;98.80;;;;;;5007051;28;20197;-68
2023/05/29 01:25:54;;;;;;;6.30;4.95;;;14.50;98.90;;;;;;5009964;28;20350;-66
2023/05/29 01:28:23;;;;;;;6.60;4.63;;;14.30;98.90;;;;;;5009486;28;20186;-68
2023/05/29 01:30:50;;;;;;;7.20;5.35;;;14.50;99.00;;;;;;5011065;28;20208;-67
2023/05/29 01:33:16;;;;;;;5.38;4.82;;;14.60;99.10;;;;;;5006852;28;20688;-70
2023/05/29 01:35:41;;;;;;;6.80;5.00;;;14.20;99.00;;;;;;5014889;28;20233;-71
2023/05/29 01:38:07;;;;;;;5.73;5.00;;;14.50;99.30;;;;;;5008768;28;20676;-68
2023/05/29 01:40:33;;;;;;;8.07;5.00;;;14.30;99.30;;;;;;5011088;28;20914;-67
2023/05/29 01:42:58;;;;;;;7.97;4.30;;;14.10;99.20;;;;;;5009137;28;20299;-68
2023/05/29 01:45:25;;;;;;;5.80;5.20;;;14.20;99.30;;;;;;5005938;28;20229;-67
2023/05/29 01:47:51;;;;;;;7.05;4.88;;;14.20;99.30;;;;;;5012880;28;20558;-68
2023/05/29 01:50:18;;;;;;;5.30;4.57;;;14.30;99.40;;;;;;5006313;28;20211;-67
2023/05/29 01:52:44;;;;;;;5.82;4.80;;;14.10;99.40;;;;;;5011163;28;20230;-66
2023/05/29 01:55:10;;;;;;;7.87;5.00;;;14.00;99.50;;;;;;5008576;28;20590;-67
2023/05/29 01:57:36;;;;;;;7.37;4.43;;;14.10;99.70;;;;;;5005859;28;20441;-69
2023/05/29 02:00:08;;;;;;;6.32;4.82;;;13.90;99.60;;;;;;5008497;28;20472;-68
2023/05/29 02:02:38;;;;;;;5.13;4.15;;;14.10;99.80;;;;;;5007631;28;20321;-68
2023/05/29 02:05:08;;;;;;;4.70;4.30;;;14.00;99.60;;;;;;5008661;28;20190;-67
2023/05/29 02:07:36;;;;;;;6.10;4.90;;;14.10;99.80;;;;;;5001810;28;20806;-69
2023/05/29 02:10:05;;;;;;;6.15;4.97;;;13.80;99.90;;;;;;5007142;28;20210;-66
2023/05/29 02:12:31;;;;;;;6.78;4.88;;;14.10;99.90;;;;;;5005570;28;20569;-68
2023/05/29 02:14:56;;;;;;;6.50;5.00;;;13.80;99.90;;;;;;5010067;28;20207;-71
2023/05/29 02:17:22;;;;;;;9.20;5.30;;;14.00;99.90;;;;;;5007450;28;20183;-66
2023/05/29 02:19:48;;;;;;;7.03;4.40;;;13.70;99.90;;;;;;5004569;28;20240;-66
2023/05/29 02:22:13;;;;;;;7.53;4.73;;;13.80;99.90;;;;;;5004435;28;20183;-66
2023/05/29 02:24:39;;;;;;;10.93;5.17;;;13.60;99.90;;;;;;5002531;28;20195;-66
2023/05/29 02:27:05;;;;;;;8.30;4.90;;;13.70;99.90;;;;;;5007875;28;20609;-66
2023/05/29 02:29:30;;;;;;;7.37;5.23;;;13.80;99.90;;;;;;5002644;28;20289;-66
2023/05/29 02:31:56;;;;;;;5.00;4.23;;;13.80;99.90;;;;;;5005043;28;20265;-66
2023/05/29 02:34:24;;;;;;;5.80;4.43;;;13.70;99.90;;;;;;5008832;28;20226;-66
2023/05/29 02:36:54;;;;;;;6.50;4.43;;;13.50;99.90;;;;;;5004545;28;20637;-66
2023/05/29 02:39:20;;;;;;;5.13;4.57;;;13.50;99.90;;;;;;5005239;28;20541;-66
2023/05/29 02:41:46;;;;;;;5.65;4.85;;;13.60;99.90;;;;;;5002631;28;20189;-67
2023/05/29 02:44:11;;;;;;;5.63;5.03;;;13.50;99.90;;;;;;5002821;28;20179;-67
2023/05/29 02:46:37;;;;;;;8.13;4.80;;;13.60;99.90;;;;;;5004960;28;20184;-69
2023/05/29 02:49:02;;;;;;;6.87;4.70;;;13.80;99.90;;;;;;5004959;28;20210;-68
2023/05/29 02:51:28;;;;;;;7.47;5.03;;;13.40;99.90;;;;;;5002903;28;20195;-67
2023/05/29 02:53:54;;;;;;;8.97;4.60;;;13.40;99.90;;;;;;5007857;28;20660;-67
2023/05/29 02:56:23;;;;;;;5.40;4.40;;;13.50;99.90;;;;;;5004739;28;20218;-69
2023/05/29 02:58:50;;;;;;;6.45;4.80;;;13.30;99.90;;;;;;4999212;28;20190;-67
2023/05/29 03:01:15;;;;;;;5.65;4.90;;;13.30;99.90;;;;;;5003400;28;20895;-71
2023/05/29 03:03:41;;;;;;;7.27;5.00;;;13.40;99.90;;;;;;5017800;28;20643;-67
2023/05/29 03:06:07;;;;;;;6.67;4.67;;;13.30;99.90;;;;;;5005911;28;20186;-68
2023/05/29 03:08:34;;;;;;;6.30;4.55;;;13.10;99.90;;;;;;5001421;28;20682;-67
2023/05/29 03:11:00;;;;;;;7.75;4.30;;;13.00;99.90;;;;;;5009308;28;20215;-67
2023/05/29 03:13:25;;;;;;;5.07;4.40;;;13.20;99.90;;;;;;5009140;28;20253;-68
2023/05/29 03:15:51;;;;;;;5.03;4.10;;;13.00;99.90;;;;;;5002896;28;20767;-69
2023/05/29 03:18:16;;;;;;;7.20;4.60;;;13.30;99.90;;;;;;5004926;28;20210;-69
2023/05/29 03:20:42;;;;;;;5.57;5.00;;;13.30;99.90;;;;;;5009054;28;20235;-67
2023/05/29 03:23:07;;;;;;;5.57;5.07;;;13.20;99.90;;;;;;4998827;28;20179;-68
2023/05/29 03:25:33;;;;;;;5.60;4.50;;;13.20;99.90;;;;;;5004628;28;20194;-66
2023/05/29 03:27:58;;;;;;;6.03;5.20;;;13.20;99.90;;;;;;5001566;28;20194;-66
2023/05/29 03:30:24;;;;;;;4.70;4.20;;;13.00;99.90;;;;;;5036290;28;20206;-66
2023/05/29 03:32:49;;;;;;;5.93;4.67;;;13.00;99.90;;;;;;5004693;28;20245;-66
2023/05/29 03:35:15;;;;;;;6.73;4.97;;;13.00;99.90;;;;;;5004548;28;20238;-66
2023/05/29 03:37:41;;;;;;;6.70;5.50;;;13.00;99.90;;;;;;5000852;28;20210;-66
2023/05/29 03:40:07;;;;;;;5.70;4.50;;;12.70;99.90;;;;;;5003182;28;20241;-66
2023/05/29 03:42:33;;;;;;;5.10;4.60;;;13.00;99.90;;;;;;5003353;28;20183;-66
2023/05/29 03:44:59;;;;;;;6.22;4.60;;;13.00;99.90;;;;;;5005260;28;20703;-66
2023/05/29 03:47:25;;;;;;;7.70;5.13;;;13.00;99.90;;;;;;5003544;28;20299;-66
2023/05/29 03:49:51;;;;;;;7.97;5.30;;;13.00;99.90;;;;;;5002555;28;20668;-66
2023/05/29 03:52:16;;;;;;;6.10;5.03;;;12.80;99.90;;;;;;5001323;28;20192;-66
2023/05/29 03:54:44;;;;;;;5.53;4.93;;;12.70;99.90;;;;;;5002903;28;21037;-66
2023/05/29 03:57:10;;;;;;;5.93;5.03;;;12.80;99.90;;;;;;5002454;28;20226;-68
2023/05/29 03:59:36;;;;;;;4.50;4.10;;;12.80;99.90;;;;;;5007330;28;20215;-66
2023/05/29 04:02:02;;;;;;;7.65;5.07;;;13.00;99.90;;;;;;4997847;28;20202;-66
2023/05/29 04:04:28;;;;;;;6.50;4.83;;;13.00;99.90;;;;;;5005198;28;20650;-66
2023/05/29 04:06:53;;;;;;;5.20;4.70;;;12.80;99.90;;;;;;5002604;28;20812;-66
2023/05/29 04:09:19;;;;;;;5.67;5.00;;;12.50;99.90;;;;;;4997985;28;20669;-66
2023/05/29 04:11:46;;;;;;;6.60;4.73;;;12.70;99.90;;;;;;5006710;28;20236;-66
2023/05/29 04:14:11;;;;;;;5.90;5.30;;;12.60;99.90;;;;;;5008114;28;20733;-66
2023/05/29 04:16:37;;;;;;;5.80;5.10;;;12.90;99.90;;;;;;5004868;28;20203;-66
2023/05/29 04:19:03;;;;;;;5.80;4.90;;;13.00;99.90;;;;;;5006147;28;20289;-66
2023/05/29 04:21:32;;;;;;;9.95;5.28;;;13.10;99.90;;;;;;4995488;28;20179;-66
2023/05/29 04:23:57;;;;;;;5.07;4.22;;;12.90;99.90;;;;;;5010083;28;20187;-66
2023/05/29 04:26:24;;;;;;;4.40;3.90;;;12.70;99.90;;;;;;4997398;28;20556;-66
2023/05/29 04:28:56;;;;;;;4.97;4.30;;;12.80;99.90;;;;;;5005460;28;20661;-70
2023/05/29 04:31:25;;;;;;;7.32;4.60;;;12.80;99.90;;;;;;5000458;28;20237;-67
2023/05/29 04:33:54;;;;;;;5.85;4.55;;;13.10;99.90;;;;;;5008434;28;20524;-67
2023/05/29 04:36:28;;;;;;;4.85;4.13;;;12.90;99.90;;;;;;5001576;28;20219;-68
2023/05/29 04:38:53;;;;;;;5.05;4.55;;;13.10;99.90;;;;;;5004300;28;20317;-68
2023/05/29 04:41:23;;;;;;;5.50;4.80;;;12.90;99.90;;;;;;5005820;28;20273;-70
2023/05/29 04:43:50;;;;;;;6.45;4.38;;;13.00;99.90;;;;;;5006790;28;20233;-67
2023/05/29 04:46:16;;;;;;;5.57;4.63;;;13.00;99.90;;;;;;5007145;28;20183;-69
2023/05/29 04:48:43;;;;;;;6.45;4.75;;;12.90;99.90;;;;;;5007610;28;21601;-68
2023/05/29 04:51:10;;;;;;;4.88;3.92;;;13.30;99.90;;;;;;5006574;28;20328;-67
2023/05/29 04:53:37;;;;;;;5.57;4.45;;;13.40;99.90;;;;;;5007004;28;20570;-70
2023/05/29 04:56:03;;;;;;;6.38;4.70;;;13.40;99.90;;;;;;5006917;28;20219;-66
2023/05/29 04:58:29;;;;;;;5.30;4.20;;;13.50;99.90;;;;;;5000644;28;20191;-66
2023/05/29 05:00:57;;;;;;;6.10;4.40;;;13.60;99.90;;;;;;5003617;28;20199;-66
2023/05/29 05:03:25;;;;;;;11.10;8.07;;;13.60;99.90;;;;;;5004547;28;20182;-66
2023/05/29 05:05:51;;;;;;;7.82;5.25;;;13.80;99.90;;;;;;4999783;28;20890;-66
2023/05/29 05:08:17;;;;;;;6.00;4.40;;;13.70;99.90;;;;;;5002214;28;20202;-65
2023/05/29 05:10:43;;;;;;;5.43;4.10;;;13.90;99.90;;;;;;5003953;28;20504;-66
2023/05/29 05:13:08;;;;;;;5.53;4.37;;;13.90;99.90;;;;;;5003817;28;20455;-66
2023/05/29 05:15:34;;;;;;;5.13;4.63;;;14.10;99.90;;;;;;5000800;28;20253;-66
2023/05/29 05:18:00;;;;;;;7.53;4.30;;;14.30;99.90;;;;;;5001679;28;20433;-66
2023/05/29 05:20:25;;;;;;;8.37;4.43;;;14.30;99.90;;;;;;5007655;28;20462;-66
2023/05/29 05:22:51;;;;;;;8.17;5.80;;;14.30;99.90;;;;;;5002484;28;20180;-66
2023/05/29 05:25:17;;;;;;;6.73;4.90;;;14.50;99.90;;;;;;5002321;28;20285;-65
2023/05/29 05:27:43;;;;;;;4.93;4.50;;;14.70;99.90;;;;;;4996760;28;20183;-65
2023/05/29 05:30:09;;;;;;;7.20;4.80;;;14.70;99.90;;;;;;4997652;28;20564;-65
2023/05/29 05:32:35;;;;;;;4.80;4.35;;;15.20;99.90;;;;;;4997300;28;20188;-64
2023/05/29 05:35:01;;;;;;;5.50;4.10;;;15.60;99.90;;;;;;5005958;28;20607;-64
2023/05/29 05:37:26;;;;;;;5.27;4.77;;;15.50;99.20;;;;;;5009680;28;20454;-71
2023/05/29 05:39:53;;;;;;;7.43;4.73;;;16.00;98.30;;;;;;5016382;28;20584;-71
2023/05/29 05:42:19;;;;;;;6.00;5.25;;;16.00;98.00;;;;;;5018372;28;20184;-71
2023/05/29 05:44:45;;;;;;;8.18;5.68;;;16.00;97.60;;;;;;5013561;28;20675;-71
2023/05/29 05:47:11;;;;;;;5.50;4.27;;;16.30;97.40;;;;;;5010827;28;20234;-71
2023/05/29 05:49:36;;;;;;;6.63;5.00;;;16.20;97.20;;;;;;5012069;28;20214;-71
2023/05/29 05:52:02;;;;;;;5.73;5.07;;;16.20;96.70;;;;;;5013708;28;20696;-71
2023/05/29 05:54:28;;;;;;;8.73;5.07;;;16.50;96.50;;;;;;5012436;28;20289;-71
2023/05/29 05:56:53;;;;;;;8.80;5.00;;;16.70;95.90;;;;;;5019771;28;20484;-70
2023/05/29 05:59:19;;;;;;;5.50;4.50;;;16.60;95.40;;;;;;5012223;28;20696;-70
2023/05/29 06:01:44;;;;;;;7.60;5.03;;;16.80;94.80;;;;;;5012683;28;20290;-71
2023/05/29 06:04:10;;;;;;;5.57;4.87;;;16.90;94.30;;;;;;5014105;28;20605;-70
2023/05/29 06:06:36;;;;;;;6.93;4.80;;;16.90;94.30;;;;;;5017450;28;20192;-71
2023/05/29 06:09:01;;;;;;;6.00;5.30;;;17.20;94.00;;;;;;5013382;28;20253;-71
2023/05/29 06:11:27;;;;;;;6.53;5.77;;;17.20;94.50;;;;;;5018049;28;20198;-71
2023/05/29 06:13:53;;;;;;;5.37;4.87;;;17.20;93.50;;;;;;5024682;28;20187;-70
2023/05/29 06:16:19;;;;;;;5.00;4.37;;;17.40;93.20;;;;;;5020213;28;20280;-71
2023/05/29 06:18:45;;;;;;;6.60;4.38;;;17.40;93.00;;;;;;5026383;28;20465;-71
2023/05/29 06:21:12;;;;;;;6.50;4.70;;;17.30;92.40;;;;;;5023618;28;20252;-70
2023/05/29 06:23:38;;;;;;;6.95;5.47;;;17.60;92.60;;;;;;5016227;28;20652;-70
2023/05/29 06:26:04;;;;;;;7.43;4.97;;;17.70;92.60;;;;;;5030132;28;20193;-71
2023/05/29 06:28:30;;;;;;;6.30;5.00;;;17.80;92.10;;;;;;5021988;28;20202;-71
2023/05/29 06:30:56;;;;;;;6.43;5.17;;;18.00;91.90;;;;;;5014950;28;20218;-70
2023/05/29 06:33:21;;;;;;;4.95;4.45;;;18.00;91.80;;;;;;5020957;28;20492;-71
2023/05/29 06:35:48;;;;;;;5.57;4.73;;;18.00;91.70;;;;;;5030044;28;20214;-70
2023/05/29 06:38:14;;;;;;;6.82;5.68;;;18.50;91.50;;;;;;5017952;28;20217;-70
2023/05/29 06:40:40;;;;;;;5.57;5.00;;;18.30;91.10;;;;;;5025782;28;20226;-70
2023/05/29 06:43:05;;;;;;;7.13;4.60;;;18.40;91.30;;;;;;5020588;28;20183;-70
2023/05/29 06:45:31;;;;;;;4.97;4.47;;;18.80;91.20;;;;;;5018311;28;20815;-70
2023/05/29 06:47:56;;;;;;;6.37;4.60;;;18.70;90.70;;;;;;5020219;28;20191;-71
2023/05/29 06:50:22;;;;;;;6.80;4.50;;;18.90;90.30;;;;;;5007230;28;20222;-70
2023/05/29 06:52:48;;;;;;;9.23;6.30;;;18.90;90.20;;;;;;4997479;28;20202;-71
2023/05/29 06:55:13;;;;;;;5.00;4.50;;;19.10;89.80;;;;;;5001876;28;20364;-73
2023/05/29 06:57:39;;;;;;;5.97;5.23;;;19.20;89.70;;;;;;5004342;28;20268;-73
2023/05/29 07:00:06;;;;;;;6.80;4.90;;;19.40;88.70;;;;;;5003074;28;20211;-68
2023/05/29 07:02:32;;;;;;;5.45;4.90;;;19.80;88.30;;;;;;5003679;28;20439;-69
2023/05/29 07:04:57;;;;;;;7.17;5.87;;;20.40;86.10;;;;;;5002311;28;20277;-70
2023/05/29 07:07:23;;;;;;;8.33;4.93;;;21.50;82.70;;;;;;5002033;28;20879;-70
2023/05/29 07:09:49;;;;;;;5.17;4.40;;;22.80;77.70;;;;;;5004228;28;20214;-71
2023/05/29 07:12:14;;;;;;;6.90;5.10;;;25.20;70.80;;;;;;5001634;28;20631;-70
2023/05/29 07:14:40;;;;;;;6.67;5.00;;;27.30;64.00;;;;;;5004468;28;20186;-69
2023/05/29 07:17:05;;;;;;;5.00;4.47;;;28.60;57.60;;;;;;5000888;28;20253;-70
2023/05/29 07:19:34;;;;;;;5.10;4.50;;;30.50;54.10;;;;;;5003041;28;20664;-69
2023/05/29 07:22:00;;;;;;;5.40;4.90;;;30.90;50.60;;;;;;5002095;28;20237;-68
2023/05/29 07:24:26;;;;;;;7.17;5.20;;;31.10;49.30;;;;;;4996552;28;20874;-68
2023/05/29 07:26:52;;;;;;;5.10;4.70;;;29.90;48.60;;;;;;5001332;28;20194;-68
2023/05/29 07:29:20;;;;;;;5.23;4.83;;;31.10;48.60;;;;;;5001560;28;20579;-68
2023/05/29 07:31:46;;;;;;;5.13;4.57;;;33.10;44.80;;;;;;5000276;28;20540;-68
2023/05/29 07:34:12;;;;;;;5.47;4.97;;;32.80;44.40;;;;;;5001332;28;20529;-68
2023/05/29 07:36:55;;;;;;;4.90;4.50;;;33.00;43.80;;;;;;5001492;28;20482;-68
2023/05/29 07:39:21;;;;;;;4.63;4.23;;;32.70;43.20;;;;;;4997596;28;20207;-68
2023/05/29 07:41:47;;;;;;;5.70;4.37;;;34.40;42.50;;;;;;4999393;28;20456;-69
2023/05/29 07:44:12;;;;;;;5.63;5.13;;;36.40;40.00;;;;;;5006134;28;20206;-69
2023/05/29 07:46:44;;;;;;;5.90;5.30;;;35.50;38.40;;;;;;4998454;28;20187;-69
2023/05/29 07:49:09;;;;;;;5.33;4.83;;;36.00;38.10;;;;;;5003521;28;20658;-69
2023/05/29 07:51:35;;;;;;;5.70;5.20;;;35.30;37.70;;;;;;5002294;28;20537;-69
2023/05/29 07:54:01;;;;;;;4.80;4.40;;;35.80;36.70;;;;;;4997324;28;20188;-69
2023/05/29 07:56:26;;;;;;;5.20;4.50;;;35.80;36.90;;;;;;5001279;28;20556;-70
2023/05/29 07:58:54;;;;;;;7.00;5.40;;;36.00;36.20;;;;;;5001342;28;20191;-69
2023/05/29 08:01:21;;;;;;;5.87;4.80;;;35.40;37.10;;;;;;5001245;28;20266;-69
2023/05/29 08:03:47;;;;;;;6.47;4.63;;;35.50;36.60;;;;;;5002344;28;20480;-69
2023/05/29 08:06:13;;;;;;;5.60;5.10;;;37.00;34.70;;;;;;5008259;28;20532;-69
2023/05/29 08:08:38;;;;;;;5.50;4.50;;;36.80;34.10;;;;;;5006953;28;20556;-69
2023/05/29 08:11:04;;;;;;;4.43;4.10;;;36.60;33.50;;;;;;5003321;28;20367;-69
2023/05/29 08:13:30;;;;;;;5.13;4.67;;;37.00;34.20;;;;;;5009997;28;20183;-69
2023/05/29 08:15:56;;;;;;;5.33;4.83;;;37.80;33.20;;;;;;5005782;28;20245;-69
2023/05/29 08:18:25;;;;;;;5.17;4.73;;;37.10;33.00;;;;;;5007594;28;20778;-69
2023/05/29 08:20:52;;;;;;;5.50;4.67;;;37.80;31.90;;;;;;5008487;28;20512;-69
2023/05/29 08:23:18;;;;;;;4.47;4.07;;;38.10;31.30;;;;;;5005569;28;20454;-70
2023/05/29 08:25:44;;;;;;;4.80;4.30;;;37.00;32.30;;;;;;5004508;28;20533;-69
2023/05/29 08:28:09;;;;;;;6.93;4.97;;;37.70;31.60;;;;;;5004538;28;20557;-69
2023/05/29 08:30:35;;;;;;;4.80;4.40;;;37.00;32.20;;;;;;5007506;28;20202;-69
2023/05/29 08:33:01;;;;;;;5.13;4.30;;;37.40;31.80;;;;;;5012230;28;20210;-69
2023/05/29 08:35:27;;;;;;;6.30;5.10;;;37.60;32.00;;;;;;5004694;28;20207;-69
2023/05/29 08:37:52;;;;;;;6.07;5.00;;;38.10;31.50;;;;;;5007073;28;20449;-69
2023/05/29 08:40:18;;;;;;;5.87;4.47;;;37.50;31.00;;;;;;5007812;28;22927;-69
2023/05/29 08:42:56;;;;;;;4.97;4.57;;;36.30;32.50;;;;;;5007925;28;20203;-68
2023/05/29 08:45:23;;;;;;;5.27;4.77;;;36.40;32.30;;;;;;5012193;28;20208;-68
2023/05/29 08:47:52;;;;;;;5.20;4.70;;;37.00;32.10;;;;;;5006416;28;20450;-69
2023/05/29 08:50:20;;;;;;;5.63;5.03;;;36.90;32.00;;;;;;5004598;28;20466;-68
2023/05/29 08:52:47;;;;;;;5.10;4.60;;;37.40;31.70;;;;;;5006422;28;21049;-68
2023/05/29 08:55:13;;;;;;;5.37;4.90;;;37.00;32.00;;;;;;5009771;28;20477;-68
2023/05/29 08:57:39;;;;;;;8.83;5.57;;;37.30;32.00;;;;;;5004539;28;20449;-68
2023/05/29 09:00:12;;;;;;;6.47;5.07;;;36.90;31.60;;;;;;5005688;28;20552;-68
2023/05/29 09:02:44;;;;;;;5.20;4.80;;;35.80;32.50;;;;;;5007648;28;20441;-68
2023/05/29 09:05:09;;;;;;;5.50;5.10;;;35.90;33.30;;;;;;5002585;28;20909;-68
2023/05/29 09:07:38;;;;;;;5.40;4.90;;;36.10;33.50;;;;;;5004609;28;20473;-68
2023/05/29 09:10:06;;;;;;;5.10;4.70;;;36.70;33.30;;;;;;5006024;28;20485;-68
2023/05/29 09:12:32;;;;;;;5.13;4.70;;;36.70;33.30;;;;;;5004734;28;20446;-68
2023/05/29 09:14:58;;;;;;;5.37;4.87;;;35.00;34.30;;;;;;5005412;28;20498;-68
2023/05/29 09:17:24;;;;;;;5.27;4.80;;;34.10;35.20;;;;;;5002782;28;20485;-68
2023/05/29 09:19:50;;;;;;;4.90;4.40;;;34.40;35.90;;;;;;5005927;28;20625;-69
2023/05/29 09:22:16;;;;;;;5.13;4.73;;;35.70;34.90;;;;;;5009101;28;20187;-69
2023/05/29 09:24:45;;;;;;;8.90;5.73;;;36.30;34.50;;;;;;5002169;28;20453;-69
2023/05/29 09:27:11;;;;;;;5.47;5.00;;;33.80;35.00;;;;;;5006074;28;20965;-69
2023/05/29 09:29:45;;;;;;;7.23;5.57;;;34.80;36.30;;;;;;5003396;28;20496;-69
2023/05/29 09:32:14;;;;;;;6.50;5.10;;;35.90;34.70;;;;;;5007766;28;20456;-69
2023/05/29 09:34:42;;;;;;;5.43;4.93;;;36.90;34.00;;;;;;5006248;28;20973;-70
2023/05/29 09:37:09;;;;;;;5.60;5.00;;;37.40;32.60;;;;;;5002460;28;20449;-69
2023/05/29 09:39:47;;;;;;;5.50;4.83;;;38.00;32.50;;;;;;5010888;28;20489;-69
2023/05/29 09:42:14;;;;;;;5.33;4.80;;;36.90;32.00;;;;;;5003179;28;20443;-70
2023/05/29 09:44:41;;;;;;;5.33;4.93;;;37.60;32.50;;;;;;5007834;28;20476;-69
2023/05/29 09:47:07;;;;;;;5.60;5.13;;;37.40;32.40;;;;;;5006245;28;20456;-69
2023/05/29 09:49:33;;;;;;;6.13;5.43;;;38.30;31.90;;;;;;5008806;28;20489;-69
2023/05/29 09:51:59;;;;;;;4.67;4.27;;;37.60;32.10;;;;;;5007736;28;20515;-69
2023/05/29 09:54:31;;;;;;;5.70;5.20;;;37.30;31.80;;;;;;5003064;28;20674;-69
2023/05/29 09:56:58;;;;;;;5.33;4.50;;;37.10;32.20;;;;;;5010947;28;20486;-69
2023/05/29 09:59:24;;;;;;;6.40;5.50;;;37.30;32.40;;;;;;5008383;28;20546;-69
2023/05/29 10:02:11;;;;;;;5.93;5.17;;;35.90;31.30;;;;;;5007353;28;20446;-69
2023/05/29 10:04:37;;;;;;;6.67;5.70;;;34.70;34.90;;;;;;5008905;28;20448;-69
2023/05/29 10:07:31;;;;;;;5.10;4.70;;;35.40;34.30;;;;;;5002543;28;20582;-69
2023/05/29 10:10:03;;;;;;;5.43;5.03;;;35.50;33.30;;;;;;5008008;28;20991;-69
2023/05/29 10:12:32;;;;;;;5.63;5.10;;;35.80;34.00;;;;;;5007791;28;20446;-69
2023/05/29 10:14:59;;;;;;;5.30;4.80;;;35.80;33.70;;;;;;5007902;28;20902;-69
2023/05/29 10:17:34;;;;;;;4.60;4.20;;;35.80;33.50;;;;;;5009192;28;20485;-69
2023/05/29 10:20:02;;;;;;;6.90;4.37;;;35.80;33.60;;;;;;5007053;28;20530;-69
2023/05/29 10:22:31;;;;;;;6.03;4.67;;;35.70;33.10;;;;;;5001420;28;20503;-69
2023/05/29 10:24:57;;;;;;;5.77;4.60;;;34.10;34.80;;;;;;5010885;28;21013;-68
2023/05/29 10:27:23;;;;;;;4.83;4.37;;;32.80;35.80;;;;;;5002586;28;20438;-69
2023/05/29 10:30:25;;;;;;;4.90;4.40;;;31.80;36.80;;;;;;5008213;28;20904;-69
2023/05/29 10:32:59;;;;;;;5.50;4.40;;;30.80;38.70;;;;;;4985848;28;20200;-69
2023/05/29 10:35:37;;;;;;;5.17;4.67;;;30.40;38.60;;;;;;5007875;28;20569;-69
2023/05/29 10:38:11;;;;;;;4.90;4.40;;;29.90;38.50;;;;;;5012140;28;20969;-68
2023/05/29 10:40:37;;;;;;;4.37;4.07;;;29.30;39.60;;;;;;5001715;28;20556;-68
2023/05/29 10:43:02;;;;;;;4.90;4.43;;;29.40;39.60;;;;;;5005711;28;20604;-68
2023/05/29 10:45:31;;;;;;;5.33;4.00;;;29.30;39.90;;;;;;5004296;28;20192;-69
2023/05/29 10:48:16;;;;;;;4.63;4.20;;;30.00;38.60;;;;;;5004087;28;20208;-68
2023/05/29 10:50:45;;;;;;;6.23;4.67;;;31.00;37.60;;;;;;5000565;28;20564;-68
2023/05/29 10:53:16;;;;;;;5.43;4.77;;;31.10;36.50;;;;;;5005482;28;20456;-68
2023/05/29 10:55:44;;;;;;;6.30;3.80;;;31.00;36.70;;;;;;5004345;28;20881;-68
2023/05/29 10:58:18;;;;;;;5.03;4.60;;;31.60;36.80;;;;;;5002461;28;20895;-69
2023/05/29 11:00:48;;;;;;;3.93;3.63;;;31.90;35.90;;;;;;5007948;28;20465;-69
2023/05/29 11:03:21;;;;;;;5.63;3.80;;;32.00;35.70;;;;;;5001165;28;20447;-68
2023/05/29 11:06:13;;;;;;;4.47;4.07;;;32.70;34.70;;;;;;4998432;28;20447;-68
2023/05/29 11:08:46;;;;;;;5.43;4.20;;;33.40;34.10;;;;;;5000873;28;20460;-69
2023/05/29 11:11:28;;;;;;;4.40;3.90;;;33.80;33.50;;;;;;5002917;28;20449;-68
2023/05/29 11:13:56;;;;;;;4.63;4.10;;;34.50;33.20;;;;;;5003021;28;20449;-68
2023/05/29 11:16:25;;;;;;;4.07;3.67;;;34.80;32.20;;;;;;4999586;28;20477;-68
2023/05/29 11:18:52;;;;;;;5.43;3.83;;;35.10;31.90;;;;;;5004308;28;20481;-69
2023/05/29 11:21:52;;;;;;;6.37;4.30;;;34.80;31.50;;;;;;5001105;28;20503;-68
2023/05/29 11:24:26;;;;;;;5.33;4.27;;;35.00;31.00;;;;;;4999935;28;20439;-68
2023/05/29 11:26:55;;;;;;;4.60;4.20;;;35.40;31.30;;;;;;4999832;28;20446;-68
2023/05/29 11:29:26;;;;;;;5.70;3.83;;;35.10;31.40;;;;;;5007403;28;20990;-68
2023/05/29 11:32:07;;;;;;;4.87;4.47;;;34.40;31.40;;;;;;4998461;28;20461;-68
2023/05/29 11:34:34;;;;;;;4.87;3.53;;;33.60;32.20;;;;;;5027093;28;20481;-69
2023/05/29 11:37:01;;;;;;;5.87;4.13;;;33.10;32.80;;;;;;4994965;28;20502;-68
2023/05/29 11:39:27;;;;;;;4.60;4.00;;;32.80;32.50;;;;;;4999754;28;20537;-68
2023/05/29 11:41:54;;;;;;;4.10;3.70;;;32.60;33.40;;;;;;5001070;28;20454;-68
2023/05/29 11:44:23;;;;;;;4.40;3.70;;;31.90;34.10;;;;;;5002160;28;20446;-68
2023/05/29 11:47:03;;;;;;;3.93;3.60;;;31.90;34.10;;;;;;4996179;28;20540;-68
2023/05/29 11:49:36;;;;;;;4.37;4.00;;;31.50;34.40;;;;;;5005374;28;20455;-68
2023/05/29 11:52:10;;;;;;;5.20;4.17;;;30.50;35.10;;;;;;5000497;28;20453;-68
2023/05/29 11:54:36;;;;;;;3.40;3.10;;;29.90;36.10;;;;;;4997556;28;20501;-68
2023/05/29 11:57:05;;;;;;;4.73;3.30;;;29.50;36.40;;;;;;5005888;28;20482;-68
2023/05/29 11:59:31;;;;;;;4.50;4.00;;;29.30;36.60;;;;;;4997646;28;20481;-68
2023/05/29 12:01:57;;;;;;;4.40;3.87;;;29.00;36.20;;;;;;4999013;28;20456;-68
2023/05/29 12:04:22;;;;;;;3.93;3.40;;;28.20;36.40;;;;;;5006039;28;20452;-68
2023/05/29 12:06:48;;;;;;;4.80;4.07;;;28.10;36.90;;;;;;5002587;28;20207;-68
2023/05/29 12:09:29;;;;;;;4.40;3.57;;;28.00;37.60;;;;;;5002043;28;20695;-68
2023/05/29 12:12:04;;;;;;;4.27;3.87;;;27.90;37.60;;;;;;5004062;28;20242;-68
2023/05/29 12:14:30;;;;;;;5.30;4.27;;;27.80;38.00;;;;;;5002852;28;20444;-68
2023/05/29 12:16:56;;;;;;;8.23;4.20;;;27.80;37.80;;;;;;4997995;28;21014;-68
2023/05/29 12:19:21;;;;;;;6.20;3.60;;;27.60;37.90;;;;;;5003145;28;20607;-69
2023/05/29 12:21:47;;;;;;;9.80;3.43;;;27.40;37.50;;;;;;4998714;28;20207;-68
2023/05/29 12:24:13;;;;;;;5.07;3.57;;;27.40;37.80;;;;;;5001481;28;20205;-69
2023/05/29 12:26:39;;;;;;;5.63;4.07;;;27.20;38.00;;;;;;4998140;28;20215;-69
2023/05/29 12:29:07;;;;;;;3.80;3.50;;;27.10;38.50;;;;;;5005777;28;20970;-69
2023/05/29 12:31:33;;;;;;;4.23;3.77;;;27.10;38.20;;;;;;4998898;28;20323;-69
2023/05/29 12:34:10;;;;;;;3.60;3.27;;;27.10;38.50;;;;;;5002541;28;21047;-69
2023/05/29 12:36:37;;;;;;;3.53;3.23;;;27.00;37.90;;;;;;4998346;28;20486;-69
2023/05/29 12:39:08;;;;;;;4.03;3.63;;;26.90;37.30;;;;;;4998954;28;20943;-69
2023/05/29 12:41:36;;;;;;;4.00;3.60;;;26.90;38.00;;;;;;5001362;28;21203;-69
2023/05/29 12:44:03;;;;;;;4.87;3.37;;;26.80;37.80;;;;;;4999772;28;20446;-69
2023/05/29 12:46:37;;;;;;;4.37;3.97;;;26.80;37.80;;;;;;5001675;28;21062;-69
2023/05/29 12:49:12;;;;;;;3.40;3.10;;;27.00;37.90;;;;;;5000039;28;20596;-69
2023/05/29 12:51:41;;;;;;;3.83;3.20;;;27.00;37.10;;;;;;5002999;28;20454;-69